メインページ
METAR-TAF:

METAR-TAF

空港 :

プリンス・アルバート, サスカチュワン州, カナダ

緯度: 53-13N, 経度: 105-41W, 海抜: 428m

現時点の気象観測

当レポートは1時間6分前の10:00(UTC)に作成
西/南西の風 4kt
気温 -5°C
湿度 68%
気圧 1005 hPa
視程: 24.1km
高度20000ftの千切れ雲あり

METAR: CYPA 221000Z 24004KT 15SM BKN200 M05/M10 A2968 RMK CI7 SLP079

時間: 05:06 (11:06 UTC)

予報

当レポートは4時間28分前の06:38(UTC)に作成
予報は22日の 07時(UTC)から 22日の 19時(UTC)まで有効
西/南西の風 5kt
視程: 10km
高度24000ftの千切れ雲あり
22日の 1700時(UTC)から
南西の風 6kt
視程: 10km
高度8000ftの雲は散在している
高度12000ftの千切れ雲あり

TAF: CYPA 220638Z 2207/2219 25005KT P6SM BKN240 FM221700 22006KT P6SM SCT080 BKN120 RMK NXT FCST BY 221300Z

4,000以上の空港の気象観測と天気予報(METAR報とTAF報)

利用可能な観測所は地図上に黄色い丸と赤い丸で示す。

丸の上にカーソルを重ねると観測所名を参照できる。

次にクリックすると気象観測と天気予報を参照できる。

マップの切り替え:黒色「×」印の緑ボタンをクリックして拡大、「-」印の緑ボタンをクリックして縮小、緑色の三角印をクリックして隣りの地図に切り替え


METAR-TAF: